• Join FlightAware (Why Join?)
  • Login
  • US Flag 
06:18AM EST


 

Airport Tracker/Info


-or-


 

Live Flight TrackerFlight Track Log ✈ UCA3596 ✈ 12-Oct-2013 ✈ KIAD - KBGM

Flight Track Log - Related Links

Times and Time Zones

All times are in EDT time to prevent confusion due to time zone crossing. See the UCA3596 flight status page for this flight to view local times or setup timezone preferences in your user account.

Time Position Orientation Groundspeed Altitude Reporting Facility
EDT Latitude Longitude Course Direction KTS MPH feet Rate Location/Type
01:42PM 39.3182 -77.2991 19° North  Level Estimated
01:43PM 39.3800 -77.2722 19° North  Level Estimated
01:44PM 39.4417 -77.2451 19° North  Level Estimated
01:45PM 39.5035 -77.2181 19° North  Level Estimated
01:46PM 39.5652 -77.1910 19° North  Level Estimated
01:47PM 39.6270 -77.1638 19° North  Level Estimated
01:48PM 39.6887 -77.1366 19° North  Level Estimated
01:49PM 39.7505 -77.1093 19° North  Level Estimated
01:50PM 39.8122 -77.0820 19° North  Level Estimated
01:51PM 39.8739 -77.0547 19° North  Level Estimated
01:52PM 39.9356 -77.0273 19° North  Level Estimated
01:53PM 39.9973 -76.9998 19° North  Level Estimated
01:54PM 40.0590 -76.9723 19° North  Level Estimated
01:55PM 40.1207 -76.9448 19° North  Level Estimated
01:56PM 40.1824 -76.9172 19° North  Level Estimated
01:57PM 40.2441 -76.8895 19° North  Level Estimated
01:58PM 40.3058 -76.8618 19° North  Level Estimated
01:59PM 40.3674 -76.8341 19° North  Level Estimated
02:00PM 40.4291 -76.8063 19° North  Level Estimated
02:01PM 40.4907 -76.7784 19° North  Level Estimated
02:02PM 40.5524 -76.7505 19° North  Level Estimated
02:03PM 40.6140 -76.7225 19° North  Level Estimated
02:04PM 40.6757 -76.6945 19° North  Level Estimated
02:05PM 40.7373 -76.6665 19° North  Level Estimated
02:06PM 40.7989 -76.6383 19° North  Level Estimated
02:07PM 40.8605 -76.6102 19° North  Level Estimated
02:08PM 40.9221 -76.5819 19° North  Level Estimated
02:09PM 40.9837 -76.5537 19° North  Level Estimated
02:10PM 41.0453 -76.5253 19° North  Level Estimated
02:11PM 41.1069 -76.4970 19° North  Level Estimated
02:12PM 41.1685 -76.4685 19° North  Level Estimated
02:13PM 41.2301 -76.4400 19° North  Level Estimated
02:14PM 41.2916 -76.4115 19° North  Level Estimated
02:15PM 41.3532 -76.3829 19° North  Level Estimated
02:16PM 41.4147 -76.3543 19° North  Level Estimated
02:17PM 41.4763 -76.3256 19° North  Level Estimated
02:18PM 41.5378 -76.2968 19° North  Level Estimated
02:19PM 41.5993 -76.2680 19° North  Level Estimated
02:20PM 41.6609 -76.2391 19° North  Level Estimated
02:21PM 41.7224 -76.2102 19° North  Level Estimated
02:22PM 41.7839 -76.1812 19° North  Level Estimated
02:23PM 41.8454 -76.1522 19° North  Level Estimated
02:24PM 41.9069 -76.1231 19° North  Level Estimated
02:25PM 41.9684 -76.0940 19° North  Level Estimated
02:26PM 42.0299 -76.0648 19° North  Level Estimated
02:27PM 42.0913 -76.0355 19° North  Level Estimated
02:28PM 42.1528 -76.0062 19° North  Level Estimated
02:29PM 42.2084 -75.9796 19° North  Level Estimated
02:30PM 42.2084 -75.9796 35° Northeast  Level Estimated
02:31PM 42.2084 -75.9796 35° Northeast  Level Estimated
02:32PM 42.2084 -75.9796 35° Northeast  Level Estimated
02:33PM 42.2084 -75.9796 35° Northeast  Level Estimated
02:34PM 42.2084 -75.9796 35° Northeast  Level Estimated
02:35PM 42.2084 -75.9796 35° Northeast  Level Estimated
02:36PM 42.2084 -75.9796 35° Northeast  Level Estimated
02:37PM 42.2084 -75.9796 35° Northeast  Level Estimated
02:38PM 42.2084 -75.9796 35° Northeast  Level Estimated
02:39PM 42.2084 -75.9796 35° Northeast  Level Estimated
02:40PM 42.2084 -75.9796 35° Northeast  Level Estimated
02:41PM 42.2084 -75.9796 35° Northeast  Level Estimated
02:42PM 42.2084 -75.9796 35° Northeast  Level Estimated
02:43PM 42.2084 -75.9796 35° Northeast  Level Estimated
02:44PM 42.2084 -75.9796 35° Northeast  Level Estimated
02:45PM 42.2084 -75.9796 35° Northeast  Level Estimated